sensor_id;sensor_type;location;lat;lon;timestamp;pressure;altitude;pressure_sealevel;temperature;humidity
76046;BME280;64741;41.730;44.788;2023-04-25T00:01:51;988.4;;;24.2;45.9
76046;BME280;64741;41.730;44.788;2023-04-25T00:06:49;988.4;;;24.2;45.8
76046;BME280;64741;41.730;44.788;2023-04-25T00:11:53;988.4;;;24.2;45.8
76046;BME280;64741;41.730;44.788;2023-04-25T00:16:49;988.4;;;24.2;45.7
76046;BME280;64741;41.730;44.788;2023-04-25T00:21:49;988.2;;;24.1;45.7
76046;BME280;64741;41.730;44.788;2023-04-25T00:26:49;988.1;;;24.1;45.7
76046;BME280;64741;41.730;44.788;2023-04-25T00:31:47;988.1;;;24.1;45.7
76046;BME280;64741;41.730;44.788;2023-04-25T00:36:23;988.1;;;24.1;45.7
76046;BME280;64741;41.730;44.788;2023-04-25T00:41:49;988.1;;;24.1;45.5
76046;BME280;64741;41.730;44.788;2023-04-25T00:46:53;988;;;24.1;45.4
76046;BME280;64741;41.730;44.788;2023-04-25T00:51:51;988;;;24.1;45.3
76046;BME280;64741;41.730;44.788;2023-04-25T00:56:05;987.9;;;24.1;45.2
76046;BME280;64741;41.730;44.788;2023-04-25T01:01:39;988;;;24.1;45.1
76046;BME280;64741;41.730;44.788;2023-04-25T01:06:47;988.2;;;24.1;45.1
76046;BME280;64741;41.730;44.788;2023-04-25T01:11:51;988.2;;;24.1;45.1
76046;BME280;64741;41.730;44.788;2023-04-25T01:16:49;988.2;;;24.1;45.1
76046;BME280;64741;41.730;44.788;2023-04-25T01:21:49;988.2;;;24.1;45.1
76046;BME280;64741;41.730;44.788;2023-04-25T01:26:31;988.2;;;24.1;45.2
76046;BME280;64741;41.730;44.788;2023-04-25T01:31:49;988.2;;;24.1;45.2
76046;BME280;64741;41.730;44.788;2023-04-25T01:36:53;988.3;;;24.1;45.2
76046;BME280;64741;41.730;44.788;2023-04-25T01:41:51;988.4;;;24;45.3
76046;BME280;64741;41.730;44.788;2023-04-25T01:46:51;988.3;;;24;45.2
76046;BME280;64741;41.730;44.788;2023-04-25T01:51:51;988.3;;;24;45.2
76046;BME280;64741;41.730;44.788;2023-04-25T01:56:41;988.3;;;24;45.2
76046;BME280;64741;41.730;44.788;2023-04-25T02:01:51;988.4;;;24;45.2
76046;BME280;64741;41.730;44.788;2023-04-25T02:06:37;988.4;;;24;45.2
76046;BME280;64741;41.730;44.788;2023-04-25T02:11:43;988.3;;;24;45.2
76046;BME280;64741;41.730;44.788;2023-04-25T02:16:37;988.3;;;24;45.1
76046;BME280;64741;41.730;44.788;2023-04-25T02:21:53;988.4;;;24;45.1
76046;BME280;64741;41.730;44.788;2023-04-25T02:26:45;988.5;;;24;45
76046;BME280;64741;41.730;44.788;2023-04-25T02:31:53;988.6;;;24;45
76046;BME280;64741;41.730;44.788;2023-04-25T02:36:51;988.6;;;24;45
76046;BME280;64741;41.730;44.788;2023-04-25T02:41:49;988.7;;;24;45
76046;BME280;64741;41.730;44.788;2023-04-25T02:46:47;988.8;;;24;45
76046;BME280;64741;41.730;44.788;2023-04-25T02:51:51;988.8;;;24;45
76046;BME280;64741;41.730;44.788;2023-04-25T02:56:45;988.7;;;24;44.9
76046;BME280;64741;41.730;44.788;2023-04-25T03:01:45;988.8;;;24;44.9
76046;BME280;64741;41.730;44.788;2023-04-25T03:06:53;988.8;;;24;44.9
76046;BME280;64741;41.730;44.788;2023-04-25T03:11:51;988.8;;;24;44.9
76046;BME280;64741;41.730;44.788;2023-04-25T03:16:53;988.7;;;24;45
76046;BME280;64741;41.730;44.788;2023-04-25T03:21:49;988.7;;;24;44.9
76046;BME280;64741;41.730;44.788;2023-04-25T03:26:49;988.7;;;23.9;44.9
76046;BME280;64741;41.730;44.788;2023-04-25T03:31:49;988.7;;;23.9;44.9
76046;BME280;64741;41.730;44.788;2023-04-25T03:36:45;988.7;;;23.9;44.9
76046;BME280;64741;41.730;44.788;2023-04-25T03:41:47;988.7;;;23.9;44.8
76046;BME280;64741;41.730;44.788;2023-04-25T03:46:49;988.7;;;23.9;44.8
76046;BME280;64741;41.730;44.788;2023-04-25T03:51:53;988.6;;;23.9;44.8
76046;BME280;64741;41.730;44.788;2023-04-25T03:56:47;988.6;;;23.9;44.9
76046;BME280;64741;41.730;44.788;2023-04-25T04:01:47;988.6;;;23.9;44.8
76046;BME280;64741;41.730;44.788;2023-04-25T04:06:51;988.6;;;23.9;44.8
76046;BME280;64741;41.730;44.788;2023-04-25T04:11:53;988.6;;;23.9;44.8
76046;BME280;64741;41.730;44.788;2023-04-25T04:16:51;988.5;;;23.9;44.8
76046;BME280;64741;41.730;44.788;2023-04-25T04:21:45;988.5;;;23.9;44.4
76046;BME280;64741;41.730;44.788;2023-04-25T04:26:53;988.4;;;23.9;44
76046;BME280;64741;41.730;44.788;2023-04-25T04:31:51;988.4;;;23.9;43.9
76046;BME280;64741;41.730;44.788;2023-04-25T04:36:35;988.4;;;23.9;43.6
76046;BME280;64741;41.730;44.788;2023-04-25T04:41:45;988.4;;;23.8;43.6
76046;BME280;64741;41.730;44.788;2023-04-25T04:46:53;988.3;;;23.8;43.4
76046;BME280;64741;41.730;44.788;2023-04-25T04:51:49;988.2;;;23.8;43.2
76046;BME280;64741;41.730;44.788;2023-04-25T04:56:49;988.2;;;23.8;43
76046;BME280;64741;41.730;44.788;2023-04-25T05:01:53;988.1;;;23.8;42.9
76046;BME280;64741;41.730;44.788;2023-04-25T05:06:50;988.1;;;23.7;42.9
76046;BME280;64741;41.730;44.788;2023-04-25T05:11:51;988;;;23.7;42.9
76046;BME280;64741;41.730;44.788;2023-04-25T05:16:47;988;;;23.7;42.9
76046;BME280;64741;41.730;44.788;2023-04-25T05:21:07;988.1;;;23.7;42.8
76046;BME280;64741;41.730;44.788;2023-04-25T05:26:53;988.2;;;23.7;42.6
76046;BME280;64741;41.730;44.788;2023-04-25T05:31:47;988.2;;;23.7;42.7
76046;BME280;64741;41.730;44.788;2023-04-25T05:36:53;988.2;;;23.7;42.7
76046;BME280;64741;41.730;44.788;2023-04-25T05:41:51;988.2;;;23.7;42.9
76046;BME280;64741;41.730;44.788;2023-04-25T05:46:49;988.2;;;23.8;43.3
76046;BME280;64741;41.730;44.788;2023-04-25T05:51:39;988.1;;;23.8;43.8
76046;BME280;64741;41.730;44.788;2023-04-25T05:56:49;988.1;;;23.8;44
76046;BME280;64741;41.730;44.788;2023-04-25T06:01:45;988;;;23.8;44.2
76046;BME280;64741;41.730;44.788;2023-04-25T06:06:45;988.1;;;23.8;44.2
76046;BME280;64741;41.730;44.788;2023-04-25T06:11:53;988.1;;;23.9;44.4
76046;BME280;64741;41.730;44.788;2023-04-25T06:16:49;988.1;;;23.9;44.4
76046;BME280;64741;41.730;44.788;2023-04-25T06:21:53;988.1;;;23.9;44.5
76046;BME280;64741;41.730;44.788;2023-04-25T06:26:49;988.2;;;23.9;44.6
76046;BME280;64741;41.730;44.788;2023-04-25T06:31:49;988.1;;;23.9;44.7
76046;BME280;64741;41.730;44.788;2023-04-25T06:36:51;988;;;23.9;44.7
76046;BME280;64741;41.730;44.788;2023-04-25T06:41:39;988;;;23.9;44.7
76046;BME280;64741;41.730;44.788;2023-04-25T06:46:49;988;;;23.9;44.7
76046;BME280;64741;41.730;44.788;2023-04-25T06:51:47;988;;;23.9;44.7
76046;BME280;64741;41.730;44.788;2023-04-25T06:56:53;988.1;;;23.9;44.6
76046;BME280;64741;41.730;44.788;2023-04-25T07:01:47;988;;;23.9;44.6
76046;BME280;64741;41.730;44.788;2023-04-25T07:06:51;988;;;23.9;44.6
76046;BME280;64741;41.730;44.788;2023-04-25T07:11:53;988;;;23.9;44.7
76046;BME280;64741;41.730;44.788;2023-04-25T07:16:55;988;;;24;44.7
76046;BME280;64741;41.730;44.788;2023-04-25T07:21:23;988.1;;;24;44.9
76046;BME280;64741;41.730;44.788;2023-04-25T07:26:49;988;;;24;45
76046;BME280;64741;41.730;44.788;2023-04-25T07:31:55;988;;;24.1;45
76046;BME280;64741;41.730;44.788;2023-04-25T07:36:53;987.9;;;24.1;44.9
76046;BME280;64741;41.730;44.788;2023-04-25T07:41:51;987.9;;;24.1;45
76046;BME280;64741;41.730;44.788;2023-04-25T07:46:47;987.8;;;24.1;44.8
76046;BME280;64741;41.730;44.788;2023-04-25T07:51:43;987.7;;;24.1;44.6
76046;BME280;64741;41.730;44.788;2023-04-25T07:56:51;987.7;;;24.1;44.5
76046;BME280;64741;41.730;44.788;2023-04-25T08:01:49;987.6;;;24.1;44.3
76046;BME280;64741;41.730;44.788;2023-04-25T08:06:55;987.6;;;24.1;44.4
76046;BME280;64741;41.730;44.788;2023-04-25T08:11:51;987.6;;;24.1;44.2
76046;BME280;64741;41.730;44.788;2023-04-25T08:16:51;987.6;;;24.1;44
76046;BME280;64741;41.730;44.788;2023-04-25T08:21:47;987.6;;;24.1;43.9
76046;BME280;64741;41.730;44.788;2023-04-25T08:26:47;987.7;;;24.1;43.9
76046;BME280;64741;41.730;44.788;2023-04-25T08:31:51;987.7;;;24.1;43.9
76046;BME280;64741;41.730;44.788;2023-04-25T08:36:49;987.7;;;24.1;44.1
76046;BME280;64741;41.730;44.788;2023-04-25T08:41:56;987.6;;;24.1;44.5
76046;BME280;64741;41.730;44.788;2023-04-25T08:46:31;987.5;;;24.2;45.1
76046;BME280;64741;41.730;44.788;2023-04-25T08:51:44;987.4;;;24.2;45.5
76046;BME280;64741;41.730;44.788;2023-04-25T08:56:49;987.4;;;24.2;45.7
76046;BME280;64741;41.730;44.788;2023-04-25T09:01:55;987.3;;;24.2;45.7
76046;BME280;64741;41.730;44.788;2023-04-25T09:06:51;987.1;;;24.2;45.6
76046;BME280;64741;41.730;44.788;2023-04-25T09:11:45;987;;;24.3;45.3
76046;BME280;64741;41.730;44.788;2023-04-25T09:16:57;986.9;;;24.2;45.1
76046;BME280;64741;41.730;44.788;2023-04-25T09:21:50;986.8;;;24.2;44.9
76046;BME280;64741;41.730;44.788;2023-04-25T09:26:49;986.8;;;24.2;44.8
76046;BME280;64741;41.730;44.788;2023-04-25T09:31:49;986.8;;;24.2;44.7
76046;BME280;64741;41.730;44.788;2023-04-25T09:36:41;986.8;;;24.2;44.7
76046;BME280;64741;41.730;44.788;2023-04-25T09:41:53;986.8;;;24.3;45.2
76046;BME280;64741;41.730;44.788;2023-04-25T09:46:49;986.8;;;24.3;45.8
76046;BME280;64741;41.730;44.788;2023-04-25T09:51:57;986.7;;;24.3;46.3
76046;BME280;64741;41.730;44.788;2023-04-25T09:56:51;986.7;;;24.3;46.9
76046;BME280;64741;41.730;44.788;2023-04-25T10:01:55;986.7;;;24.3;47.4
76046;BME280;64741;41.730;44.788;2023-04-25T10:06:49;986.6;;;24.3;48.4
76046;BME280;64741;41.730;44.788;2023-04-25T10:11:49;986.6;;;24.3;48.5
76046;BME280;64741;41.730;44.788;2023-04-25T10:16:53;986.5;;;24.3;48.2
76046;BME280;64741;41.730;44.788;2023-04-25T10:21:58;986.5;;;24.3;48.1
76046;BME280;64741;41.730;44.788;2023-04-25T10:26:53;986.5;;;24.3;47.6
76046;BME280;64741;41.730;44.788;2023-04-25T10:31:49;986.4;;;24.4;47.4
76046;BME280;64741;41.730;44.788;2023-04-25T10:36:55;986.4;;;24.4;47.6
76046;BME280;64741;41.730;44.788;2023-04-25T10:41:06;986.3;;;24.4;47.7
76046;BME280;64741;41.730;44.788;2023-04-25T10:46:49;986.3;;;24.4;47.6
76046;BME280;64741;41.730;44.788;2023-04-25T10:51:49;986.3;;;24.4;47.8
76046;BME280;64741;41.730;44.788;2023-04-25T10:56:55;986.3;;;24.5;47.9
76046;BME280;64741;41.730;44.788;2023-04-25T11:01:53;986.3;;;24.5;47.4
76046;BME280;64741;41.730;44.788;2023-04-25T11:07:02;986.3;;;24.5;47.1
76046;BME280;64741;41.730;44.788;2023-04-25T11:11:25;986.3;;;24.6;46.8
76046;BME280;64741;41.730;44.788;2023-04-25T11:16:54;986.3;;;24.6;46.4
76046;BME280;64741;41.730;44.788;2023-04-25T11:21:54;986.3;;;24.6;46.1
76046;BME280;64741;41.730;44.788;2023-04-25T11:26:47;986.3;;;24.6;45.8
76046;BME280;64741;41.730;44.788;2023-04-25T11:31:50;986.2;;;24.5;45.5
76046;BME280;64741;41.730;44.788;2023-04-25T11:36:52;986.1;;;24.5;45.2
76046;BME280;64741;41.730;44.788;2023-04-25T11:41:49;986.2;;;24.5;45.3
76046;BME280;64741;41.730;44.788;2023-04-25T11:46:56;986.1;;;24.5;45.1
76046;BME280;64741;41.730;44.788;2023-04-25T11:51:50;986.1;;;24.5;45
76046;BME280;64741;41.730;44.788;2023-04-25T11:56:53;986.1;;;24.5;45.1
76046;BME280;64741;41.730;44.788;2023-04-25T12:01:47;986.1;;;24.5;44.9
76046;BME280;64741;41.730;44.788;2023-04-25T12:06:54;986.1;;;24.5;44.8
76046;BME280;64741;41.730;44.788;2023-04-25T12:11:52;986;;;24.5;44.8
76046;BME280;64741;41.730;44.788;2023-04-25T12:16:48;985.9;;;24.5;44.6
76046;BME280;64741;41.730;44.788;2023-04-25T12:21:52;986;;;24.5;44.4
76046;BME280;64741;41.730;44.788;2023-04-25T12:26:52;985.9;;;24.5;44.2
76046;BME280;64741;41.730;44.788;2023-04-25T12:31:52;985.9;;;24.5;44.1
76046;BME280;64741;41.730;44.788;2023-04-25T12:36:48;985.9;;;24.5;43.8
76046;BME280;64741;41.730;44.788;2023-04-25T12:41:50;985.9;;;24.6;43.7
76046;BME280;64741;41.730;44.788;2023-04-25T12:46:54;985.9;;;24.5;43.6
76046;BME280;64741;41.730;44.788;2023-04-25T12:51:53;986;;;24.6;43.7
76046;BME280;64741;41.730;44.788;2023-04-25T12:56:49;986;;;24.6;43.6
76046;BME280;64741;41.730;44.788;2023-04-25T13:01:50;986;;;24.6;43.4
76046;BME280;64741;41.730;44.788;2023-04-25T13:06:49;986;;;24.6;43.3
76046;BME280;64741;41.730;44.788;2023-04-25T13:11:49;985.9;;;24.6;43.5
76046;BME280;64741;41.730;44.788;2023-04-25T13:16:49;985.9;;;24.6;43.5
76046;BME280;64741;41.730;44.788;2023-04-25T13:21:46;985.9;;;24.6;43.5
76046;BME280;64741;41.730;44.788;2023-04-25T13:26:54;985.9;;;24.6;43.7
76046;BME280;64741;41.730;44.788;2023-04-25T13:31:54;985.9;;;24.6;44
76046;BME280;64741;41.730;44.788;2023-04-25T13:36:48;985.9;;;24.6;44.4
76046;BME280;64741;41.730;44.788;2023-04-25T13:41:54;985.9;;;24.6;44.8
76046;BME280;64741;41.730;44.788;2023-04-25T13:46:50;986;;;24.6;45.2
76046;BME280;64741;41.730;44.788;2023-04-25T13:51:50;986;;;24.6;46.1
76046;BME280;64741;41.730;44.788;2023-04-25T13:56:46;986.1;;;24.7;47
76046;BME280;64741;41.730;44.788;2023-04-25T14:01:54;986.1;;;24.7;47.6
76046;BME280;64741;41.730;44.788;2023-04-25T14:06:50;986.1;;;24.7;47.7
76046;BME280;64741;41.730;44.788;2023-04-25T14:11:48;986.1;;;24.7;47.6
76046;BME280;64741;41.730;44.788;2023-04-25T14:16:54;986.1;;;24.7;47.9
76046;BME280;64741;41.730;44.788;2023-04-25T14:21:50;986.1;;;24.7;48.5
76046;BME280;64741;41.730;44.788;2023-04-25T14:26:48;986.1;;;24.7;48.8
76046;BME280;64741;41.730;44.788;2023-04-25T14:31:44;986.1;;;24.7;48.7
76046;BME280;64741;41.730;44.788;2023-04-25T14:36:35;986.2;;;24.7;48.6
76046;BME280;64741;41.730;44.788;2023-04-25T14:41:52;986.2;;;24.7;48.5
76046;BME280;64741;41.730;44.788;2023-04-25T14:46:48;986.2;;;24.7;48.6
76046;BME280;64741;41.730;44.788;2023-04-25T14:51:54;986.2;;;24.7;48.7
76046;BME280;64741;41.730;44.788;2023-04-25T14:56:52;986.2;;;24.7;49.2
76046;BME280;64741;41.730;44.788;2023-04-25T15:01:52;986.2;;;24.7;49.6
76046;BME280;64741;41.730;44.788;2023-04-25T15:06:46;986.2;;;24.6;49.3
76046;BME280;64741;41.730;44.788;2023-04-25T15:11:42;986.2;;;24.7;49.2
76046;BME280;64741;41.730;44.788;2023-04-25T15:16:52;986.2;;;24.7;48.9
76046;BME280;64741;41.730;44.788;2023-04-25T15:21:50;986.3;;;24.6;48.5
76046;BME280;64741;41.730;44.788;2023-04-25T15:26:54;986.3;;;24.6;48.3
76046;BME280;64741;41.730;44.788;2023-04-25T15:31:52;986.4;;;24.6;48
76046;BME280;64741;41.730;44.788;2023-04-25T15:36:42;986.5;;;24.6;47.8
76046;BME280;64741;41.730;44.788;2023-04-25T15:41:48;986.6;;;24.6;47.5
76046;BME280;64741;41.730;44.788;2023-04-25T15:46:50;986.6;;;24.6;47.2
76046;BME280;64741;41.730;44.788;2023-04-25T15:51:56;986.6;;;24.6;46.9
76046;BME280;64741;41.730;44.788;2023-04-25T15:56:56;986.7;;;24.6;46.9
76046;BME280;64741;41.730;44.788;2023-04-25T16:01:50;986.8;;;24.6;46.9
76046;BME280;64741;41.730;44.788;2023-04-25T16:06:50;986.8;;;24.6;46.9
76046;BME280;64741;41.730;44.788;2023-04-25T16:11:52;986.9;;;24.6;47
76046;BME280;64741;41.730;44.788;2023-04-25T16:16:50;986.9;;;24.6;46.9
76046;BME280;64741;41.730;44.788;2023-04-25T16:21:48;986.9;;;24.6;46.9
76046;BME280;64741;41.730;44.788;2023-04-25T16:26:46;987;;;24.6;46.9
76046;BME280;64741;41.730;44.788;2023-04-25T16:31:52;987.1;;;24.7;46.9
76046;BME280;64741;41.730;44.788;2023-04-25T16:36:54;987.2;;;24.7;46.8
76046;BME280;64741;41.730;44.788;2023-04-25T16:41:34;987.3;;;24.7;46.8
76046;BME280;64741;41.730;44.788;2023-04-25T16:46:26;987.4;;;24.7;46.8
76046;BME280;64741;41.730;44.788;2023-04-25T16:51:52;987.5;;;24.7;46.8
76046;BME280;64741;41.730;44.788;2023-04-25T16:56:52;987.6;;;24.7;46.8
76046;BME280;64741;41.730;44.788;2023-04-25T17:01:48;987.7;;;24.7;46.8
76046;BME280;64741;41.730;44.788;2023-04-25T17:06:50;987.8;;;24.7;46.7
76046;BME280;64741;41.730;44.788;2023-04-25T17:11:48;987.9;;;24.7;46.5
76046;BME280;64741;41.730;44.788;2023-04-25T17:16:40;988;;;24.7;46.2
76046;BME280;64741;41.730;44.788;2023-04-25T17:21:56;988.1;;;24.7;46
76046;BME280;64741;41.730;44.788;2023-04-25T17:26:50;988.2;;;24.7;45.8
76046;BME280;64741;41.730;44.788;2023-04-25T17:31:56;988.2;;;24.6;45.7
76046;BME280;64741;41.730;44.788;2023-04-25T17:36:52;988.3;;;24.6;45.4
76046;BME280;64741;41.730;44.788;2023-04-25T17:41:50;988.3;;;24.6;45.4
76046;BME280;64741;41.730;44.788;2023-04-25T17:46:50;988.3;;;24.6;45.3
76046;BME280;64741;41.730;44.788;2023-04-25T17:51:49;988.3;;;24.5;45.2
76046;BME280;64741;41.730;44.788;2023-04-25T17:56:52;988.3;;;24.5;45.1
76046;BME280;64741;41.730;44.788;2023-04-25T18:01:48;988.3;;;24.5;45
76046;BME280;64741;41.730;44.788;2023-04-25T18:06:56;988.4;;;24.5;45
76046;BME280;64741;41.730;44.788;2023-04-25T18:11:50;988.4;;;24.4;45
76046;BME280;64741;41.730;44.788;2023-04-25T18:16:56;988.5;;;24.4;45
76046;BME280;64741;41.730;44.788;2023-04-25T18:21:53;988.5;;;24.4;45
76046;BME280;64741;41.730;44.788;2023-04-25T18:26:48;988.7;;;24.4;45
76046;BME280;64741;41.730;44.788;2023-04-25T18:31:52;988.7;;;24.4;45.1
76046;BME280;64741;41.730;44.788;2023-04-25T18:36:50;988.7;;;24.4;45
76046;BME280;64741;41.730;44.788;2023-04-25T18:41:50;988.8;;;24.4;45
76046;BME280;64741;41.730;44.788;2023-04-25T18:46:36;988.8;;;24.4;45
76046;BME280;64741;41.730;44.788;2023-04-25T18:51:50;988.8;;;24.4;45
76046;BME280;64741;41.730;44.788;2023-04-25T18:56:46;988.7;;;24.4;45
76046;BME280;64741;41.730;44.788;2023-04-25T19:01:56;988.8;;;24.4;45
76046;BME280;64741;41.730;44.788;2023-04-25T19:06:52;988.9;;;24.4;45
76046;BME280;64741;41.730;44.788;2023-04-25T19:11:50;988.9;;;24.4;45
76046;BME280;64741;41.730;44.788;2023-04-25T19:16:50;988.9;;;24.4;45
76046;BME280;64741;41.730;44.788;2023-04-25T19:21:52;989;;;24.4;45
76046;BME280;64741;41.730;44.788;2023-04-25T19:26:50;989;;;24.4;45
76046;BME280;64741;41.730;44.788;2023-04-25T19:31:46;989;;;24.4;45
76046;BME280;64741;41.730;44.788;2023-04-25T19:36:56;989;;;24.4;45
76046;BME280;64741;41.730;44.788;2023-04-25T19:41:54;989;;;24.4;45
76046;BME280;64741;41.730;44.788;2023-04-25T19:46:48;989.1;;;24.3;45
76046;BME280;64741;41.730;44.788;2023-04-25T19:51:56;989.1;;;24.3;45
76046;BME280;64741;41.730;44.788;2023-04-25T19:56:52;989.1;;;24.3;45.1
76046;BME280;64741;41.730;44.788;2023-04-25T20:01:52;989.1;;;24.3;45.1
76046;BME280;64741;41.730;44.788;2023-04-25T20:06:48;989.2;;;24.3;45
76046;BME280;64741;41.730;44.788;2023-04-25T20:11:50;989.2;;;24.3;45
76046;BME280;64741;41.730;44.788;2023-04-25T20:16:46;989.2;;;24.3;45
76046;BME280;64741;41.730;44.788;2023-04-25T20:21:46;989.2;;;24.3;45
76046;BME280;64741;41.730;44.788;2023-04-25T20:26:54;989.2;;;24.3;45
76046;BME280;64741;41.730;44.788;2023-04-25T20:31:50;989.2;;;24.3;45
76046;BME280;64741;41.730;44.788;2023-04-25T20:36:54;989.3;;;24.3;45
76046;BME280;64741;41.730;44.788;2023-04-25T20:41:52;989.2;;;24.3;45
76046;BME280;64741;41.730;44.788;2023-04-25T20:46:50;989.3;;;24.3;45
76046;BME280;64741;41.730;44.788;2023-04-25T20:51:50;989.3;;;24.2;45
76046;BME280;64741;41.730;44.788;2023-04-25T20:56:48;989.3;;;24.2;45
76046;BME280;64741;41.730;44.788;2023-04-25T21:01:52;989.2;;;24.2;45
76046;BME280;64741;41.730;44.788;2023-04-25T21:06:52;989.2;;;24.2;45
76046;BME280;64741;41.730;44.788;2023-04-25T21:11:56;989.3;;;24.2;45
76046;BME280;64741;41.730;44.788;2023-04-25T21:16:50;989.2;;;24.2;45.1
76046;BME280;64741;41.730;44.788;2023-04-25T21:21:50;989.2;;;24.2;45.1
76046;BME280;64741;41.730;44.788;2023-04-25T21:26:56;989.2;;;24.1;45.1
76046;BME280;64741;41.730;44.788;2023-04-25T21:31:56;989.2;;;24.1;45.1
76046;BME280;64741;41.730;44.788;2023-04-25T21:36:52;989.2;;;24.1;45.1
76046;BME280;64741;41.730;44.788;2023-04-25T21:41:26;989.1;;;24.1;45.2
76046;BME280;64741;41.730;44.788;2023-04-25T21:46:56;989.1;;;24.1;45.1
76046;BME280;64741;41.730;44.788;2023-04-25T21:51:52;989.2;;;24.1;45.1
76046;BME280;64741;41.730;44.788;2023-04-25T21:56:50;989.2;;;24.1;45.1
76046;BME280;64741;41.730;44.788;2023-04-25T22:01:48;989.1;;;24.1;45.1
76046;BME280;64741;41.730;44.788;2023-04-25T22:06:54;989.1;;;24.1;44.9
76046;BME280;64741;41.730;44.788;2023-04-25T22:11:50;989.1;;;24.1;45
76046;BME280;64741;41.730;44.788;2023-04-25T22:16:50;989.1;;;24.1;44.9
76046;BME280;64741;41.730;44.788;2023-04-25T22:21:56;989.1;;;24.1;44.9
76046;BME280;64741;41.730;44.788;2023-04-25T22:26:52;989.1;;;24.1;44.9
76046;BME280;64741;41.730;44.788;2023-04-25T22:31:52;989;;;24.1;44.9
76046;BME280;64741;41.730;44.788;2023-04-25T22:36:48;989;;;24.1;44.8
76046;BME280;64741;41.730;44.788;2023-04-25T22:41:48;989;;;24.1;44.8
76046;BME280;64741;41.730;44.788;2023-04-25T22:46:52;988.9;;;24.1;44.7
76046;BME280;64741;41.730;44.788;2023-04-25T22:51:48;988.9;;;24.1;44.7
76046;BME280;64741;41.730;44.788;2023-04-25T22:56:56;989;;;24.1;44.8
76046;BME280;64741;41.730;44.788;2023-04-25T23:01:48;989;;;24.2;44.8
76046;BME280;64741;41.730;44.788;2023-04-25T23:06:40;989;;;24.1;44.8
76046;BME280;64741;41.730;44.788;2023-04-25T23:11:46;989;;;24.1;44.8
76046;BME280;64741;41.730;44.788;2023-04-25T23:16:16;989;;;24.1;44.8
76046;BME280;64741;41.730;44.788;2023-04-25T23:21:42;988.9;;;24.2;44.7
76046;BME280;64741;41.730;44.788;2023-04-25T23:26:48;988.9;;;24.2;44.5
76046;BME280;64741;41.730;44.788;2023-04-25T23:31:52;989;;;24.2;44.6
76046;BME280;64741;41.730;44.788;2023-04-25T23:36:50;989;;;24.2;44.5
76046;BME280;64741;41.730;44.788;2023-04-25T23:41:48;989;;;24.2;44.3
76046;BME280;64741;41.730;44.788;2023-04-25T23:46:46;989;;;24.2;44.2
76046;BME280;64741;41.730;44.788;2023-04-25T23:51:46;989;;;24.2;44.3
76046;BME280;64741;41.730;44.788;2023-04-25T23:56:42;989;;;24.2;44.2
